Time;durP1;ratioP1;P1;durP2;ratioP2;P2;SDS_P1;SDS_P2;PMS_P1;PMS_P2;Temp;Humidity;BMP_temperature;BMP_pressure;BME280_temperature;BME280_humidity;BME280_pressure;Samples;Min_cycle;Max_cycle;Signal;HPM_P1;HPM_P2
2021/03/27 00:00:17;;;;;;;11.50;8.00;;;;;;;;;;6130607;23;20444;-76
2021/03/27 00:02:46;;;;;;;10.27;7.60;;;;;;;;;;6129693;23;20185;-77
2021/03/27 00:05:15;;;;;;;8.10;7.20;;;;;;;;;;6130415;23;20249;-76
2021/03/27 00:07:51;;;;;;;8.63;7.53;;;;;;;;;;6129038;23;20187;-77
2021/03/27 00:10:19;;;;;;;8.87;7.47;;;;;;;;;;6130221;23;20571;-77
2021/03/27 00:12:47;;;;;;;10.97;7.77;;;;;;;;;;6130171;23;20174;-76
2021/03/27 00:15:19;;;;;;;11.97;7.93;;;;;;;;;;6130275;23;20178;-75
2021/03/27 00:17:48;;;;;;;11.03;7.73;;;;;;;;;;6129703;23;20209;-76
2021/03/27 00:20:17;;;;;;;9.40;7.37;;;;;;;;;;6104603;23;20225;-76
2021/03/27 00:22:46;;;;;;;10.87;7.20;;;;;;;;;;6129395;23;20178;-76
2021/03/27 00:25:15;;;;;;;11.03;7.60;;;;;;;;;;6130365;23;20182;-77
2021/03/27 00:27:44;;;;;;;9.90;6.93;;;;;;;;;;6129513;23;20174;-76
2021/03/27 00:30:12;;;;;;;8.97;7.07;;;;;;;;;;6130267;23;20181;-77
2021/03/27 00:32:41;;;;;;;10.07;6.80;;;;;;;;;;6129064;23;20181;-76
2021/03/27 00:35:09;;;;;;;8.30;6.93;;;;;;;;;;6130167;23;20174;-77
2021/03/27 00:37:36;;;;;;;9.27;6.87;;;;;;;;;;6130139;23;20190;-75
2021/03/27 00:40:06;;;;;;;7.53;6.73;;;;;;;;;;6130300;23;20173;-78
2021/03/27 00:42:36;;;;;;;8.93;6.97;;;;;;;;;;6129892;23;20189;-75
2021/03/27 00:45:05;;;;;;;9.77;6.67;;;;;;;;;;6130009;23;20181;-76
2021/03/27 00:47:34;;;;;;;7.80;6.60;;;;;;;;;;6130264;23;20181;-76
2021/03/27 00:50:04;;;;;;;9.53;6.60;;;;;;;;;;6130114;23;20421;-76
2021/03/27 00:52:35;;;;;;;9.70;6.77;;;;;;;;;;6129830;23;20181;-75
2021/03/27 00:55:02;;;;;;;7.33;6.50;;;;;;;;;;6130187;23;20174;-76
2021/03/27 00:57:30;;;;;;;7.20;6.20;;;;;;;;;;6129511;23;20237;-77
2021/03/27 01:00:00;;;;;;;7.20;6.50;;;;;;;;;;6129908;23;20174;-76
2021/03/27 01:02:27;;;;;;;7.30;6.43;;;;;;;;;;6129879;23;20185;-76
2021/03/27 01:04:55;;;;;;;7.60;6.80;;;;;;;;;;6129861;23;20182;-77
2021/03/27 01:07:23;;;;;;;8.80;6.23;;;;;;;;;;6129698;23;20173;-76
2021/03/27 01:09:51;;;;;;;8.67;6.20;;;;;;;;;;6130012;23;20178;-76
2021/03/27 01:12:19;;;;;;;7.83;6.33;;;;;;;;;;6129856;23;20190;-77
2021/03/27 01:14:48;;;;;;;6.80;5.90;;;;;;;;;;6129972;23;20174;-76
2021/03/27 01:17:16;;;;;;;11.20;6.87;;;;;;;;;;6129790;23;20202;-76
2021/03/27 01:19:44;;;;;;;6.57;5.97;;;;;;;;;;6129771;23;20190;-79
2021/03/27 01:22:12;;;;;;;8.23;6.20;;;;;;;;;;6129413;23;20178;-77
2021/03/27 01:24:38;;;;;;;6.93;6.33;;;;;;;;;;6129811;23;20174;-76
2021/03/27 01:27:06;;;;;;;6.40;5.80;;;;;;;;;;6128758;23;20602;-77
2021/03/27 01:29:34;;;;;;;9.53;5.93;;;;;;;;;;6129644;23;20575;-77
2021/03/27 01:32:08;;;;;;;6.27;5.60;;;;;;;;;;6129926;23;20178;-76
2021/03/27 01:34:35;;;;;;;7.00;5.70;;;;;;;;;;6129963;23;20567;-76
2021/03/27 01:37:09;;;;;;;7.50;5.87;;;;;;;;;;6129826;23;20174;-76
2021/03/27 01:39:43;;;;;;;6.47;5.87;;;;;;;;;;6129637;23;20190;-76
2021/03/27 01:42:12;;;;;;;8.50;6.60;;;;;;;;;;6129339;23;20266;-77
2021/03/27 01:44:48;;;;;;;6.07;5.30;;;;;;;;;;6129755;23;20201;-76
2021/03/27 01:47:20;;;;;;;5.90;5.40;;;;;;;;;;6129392;23;20185;-76
2021/03/27 01:49:53;;;;;;;6.77;5.70;;;;;;;;;;6129074;23;20170;-78
2021/03/27 01:52:28;;;;;;;7.53;5.57;;;;;;;;;;6128788;23;20174;-76
2021/03/27 01:55:01;;;;;;;7.37;5.90;;;;;;;;;;6129474;23;20177;-77
2021/03/27 01:57:30;;;;;;;6.93;5.20;;;;;;;;;;6129075;23;20185;-77
2021/03/27 01:59:58;;;;;;;7.23;5.30;;;;;;;;;;6129152;23;20174;-77
2021/03/27 02:02:30;;;;;;;7.03;4.97;;;;;;;;;;6129876;23;20189;-77
2021/03/27 02:05:00;;;;;;;6.00;5.40;;;;;;;;;;6129228;23;20181;-78
2021/03/27 02:07:30;;;;;;;6.27;5.03;;;;;;;;;;6128906;23;20174;-78
2021/03/27 02:09:59;;;;;;;5.57;5.07;;;;;;;;;;6128917;23;20540;-77
2021/03/27 02:12:30;;;;;;;6.03;5.30;;;;;;;;;;6128974;23;20207;-77
2021/03/27 02:14:57;;;;;;;5.43;4.90;;;;;;;;;;6129423;23;20177;-77
2021/03/27 02:17:28;;;;;;;5.23;4.80;;;;;;;;;;6128850;23;20574;-77
2021/03/27 02:20:13;;;;;;;5.30;4.80;;;;;;;;;;6129450;23;20186;-76
2021/03/27 02:22:42;;;;;;;12.57;5.80;;;;;;;;;;6129618;23;20201;-75
2021/03/27 02:25:14;;;;;;;17.00;6.17;;;;;;;;;;6129149;23;20444;-76
2021/03/27 02:27:43;;;;;;;6.87;5.80;;;;;;;;;;6128966;23;20480;-75
2021/03/27 02:30:18;;;;;;;9.20;5.40;;;;;;;;;;6128935;23;20174;-75
2021/03/27 02:33:03;;;;;;;8.07;5.50;;;;;;;;;;6128948;23;20173;-76
2021/03/27 02:35:33;;;;;;;6.77;5.50;;;;;;;;;;6128944;23;20201;-76
2021/03/27 02:38:06;;;;;;;9.07;6.07;;;;;;;;;;6128923;23;20185;-76
2021/03/27 02:40:34;;;;;;;5.07;4.67;;;;;;;;;;6128628;23;20174;-76
2021/03/27 02:43:07;;;;;;;3.93;3.40;;;;;;;;;;6128651;23;20185;-76
2021/03/27 02:45:36;;;;;;;3.10;2.80;;;;;;;;;;6128757;23;20184;-76
2021/03/27 02:48:07;;;;;;;4.03;2.90;;;;;;;;;;6129412;23;20368;-78
2021/03/27 02:50:36;;;;;;;2.43;2.33;;;;;;;;;;6128718;23;20285;-76
2021/03/27 02:53:08;;;;;;;2.20;2.10;;;;;;;;;;6128322;23;20181;-76
2021/03/27 02:55:35;;;;;;;1.90;1.80;;;;;;;;;;6128535;23;20178;-76
2021/03/27 02:58:05;;;;;;;2.23;1.90;;;;;;;;;;6128645;23;20261;-79
2021/03/27 03:00:36;;;;;;;1.80;1.80;;;;;;;;;;6129008;23;20177;-75
2021/03/27 03:03:04;;;;;;;1.90;1.80;;;;;;;;;;6129441;23;20174;-76
2021/03/27 03:05:34;;;;;;;2.30;1.60;;;;;;;;;;6129080;23;20185;-79
2021/03/27 03:08:07;;;;;;;2.03;1.90;;;;;;;;;;6128724;23;20178;-75
2021/03/27 03:10:35;;;;;;;1.70;1.60;;;;;;;;;;6128347;23;20189;-76
2021/03/27 03:13:05;;;;;;;1.80;1.70;;;;;;;;;;6128911;23;20173;-79
2021/03/27 03:15:35;;;;;;;2.00;1.90;;;;;;;;;;6128783;23;20173;-75
2021/03/27 03:18:05;;;;;;;1.67;1.57;;;;;;;;;;6128302;23;20206;-77
2021/03/27 03:20:35;;;;;;;3.23;1.90;;;;;;;;;;6128609;23;20182;-76
2021/03/27 03:23:05;;;;;;;1.80;1.70;;;;;;;;;;6128903;23;20559;-79
2021/03/27 03:25:32;;;;;;;4.33;1.87;;;;;;;;;;6128347;23;20174;-75
2021/03/27 03:28:13;;;;;;;1.93;1.80;;;;;;;;;;6128378;23;20181;-76
2021/03/27 03:30:43;;;;;;;1.63;1.53;;;;;;;;;;6123731;23;20582;-75
2021/03/27 03:33:24;;;;;;;1.50;1.40;;;;;;;;;;6128927;23;20178;-75
2021/03/27 03:35:53;;;;;;;3.20;1.50;;;;;;;;;;6128441;23;20177;-76
2021/03/27 03:38:26;;;;;;;1.43;1.40;;;;;;;;;;6128889;23;20186;-75
2021/03/27 03:41:02;;;;;;;1.97;1.37;;;;;;;;;;6128376;23;20480;-75
2021/03/27 03:43:33;;;;;;;1.30;1.20;;;;;;;;;;6128705;23;20178;-75
2021/03/27 03:46:19;;;;;;;1.90;0.93;;;;;;;;;;6128433;23;20174;-77
2021/03/27 03:48:54;;;;;;;0.97;0.97;;;;;;;;;;6119325;23;20577;-75
2021/03/27 03:51:26;;;;;;;0.70;0.70;;;;;;;;;;6128590;23;20544;-76
2021/03/27 03:53:59;;;;;;;1.60;0.60;;;;;;;;;;6128736;23;20174;-76
2021/03/27 03:56:30;;;;;;;0.50;0.50;;;;;;;;;;6127406;23;20181;-75
2021/03/27 03:59:04;;;;;;;0.70;0.60;;;;;;;;;;6128316;23;20568;-78
2021/03/27 04:01:35;;;;;;;0.47;0.47;;;;;;;;;;6128603;23;20177;-78
2021/03/27 04:04:04;;;;;;;0.50;0.50;;;;;;;;;;6128734;23;20174;-76
2021/03/27 04:06:31;;;;;;;0.50;0.50;;;;;;;;;;6128240;23;20552;-75
2021/03/27 04:09:01;;;;;;;1.87;0.60;;;;;;;;;;6130020;23;20528;-76
2021/03/27 04:11:35;;;;;;;0.30;0.30;;;;;;;;;;6129975;23;20174;-76
2021/03/27 04:14:04;;;;;;;0.50;0.50;;;;;;;;;;6104722;23;20174;-77
2021/03/27 04:16:31;;;;;;;0.50;0.50;;;;;;;;;;6129487;23;20181;-75
2021/03/27 04:19:01;;;;;;;0.57;0.40;;;;;;;;;;6130172;23;20197;-76
2021/03/27 04:21:31;;;;;;;0.30;0.30;;;;;;;;;;6130241;23;20555;-75
2021/03/27 04:24:00;;;;;;;0.20;0.20;;;;;;;;;;6130778;23;20154;-76
2021/03/27 04:26:31;;;;;;;0.50;0.40;;;;;;;;;;6129784;23;20174;-75
2021/03/27 04:29:05;;;;;;;0.40;0.40;;;;;;;;;;6130331;23;20181;-78
2021/03/27 04:31:34;;;;;;;0.40;0.40;;;;;;;;;;6130031;23;20177;-75
2021/03/27 04:34:06;;;;;;;0.50;0.50;;;;;;;;;;6130138;23;20201;-75
2021/03/27 04:36:38;;;;;;;0.50;0.50;;;;;;;;;;6129863;23;20174;-76
2021/03/27 04:39:06;;;;;;;0.30;0.30;;;;;;;;;;6130234;23;20198;-75
2021/03/27 04:41:42;;;;;;;0.20;0.20;;;;;;;;;;6129768;23;20182;-75
2021/03/27 04:44:11;;;;;;;0.90;0.57;;;;;;;;;;6129903;23;20189;-75
2021/03/27 04:46:46;;;;;;;0.60;0.40;;;;;;;;;;6129081;23;20178;-74
2021/03/27 04:49:17;;;;;;;0.20;0.20;;;;;;;;;;6130007;23;20173;-76
2021/03/27 04:51:51;;;;;;;0.93;0.20;;;;;;;;;;6130036;23;20178;-75
2021/03/27 04:54:29;;;;;;;0.37;0.37;;;;;;;;;;6129479;23;20173;-78
2021/03/27 04:56:58;;;;;;;0.20;0.20;;;;;;;;;;6129294;23;20440;-75
2021/03/27 04:59:31;;;;;;;0.20;0.20;;;;;;;;;;6129992;23;20592;-75
2021/03/27 05:02:03;;;;;;;0.70;0.60;;;;;;;;;;6128930;23;20711;-76
2021/03/27 05:04:33;;;;;;;0.57;0.57;;;;;;;;;;6130279;23;20181;-76
2021/03/27 05:07:04;;;;;;;0.80;0.80;;;;;;;;;;6130007;23;20178;-76
2021/03/27 05:09:36;;;;;;;1.00;0.90;;;;;;;;;;6130220;23;20174;-75
2021/03/27 05:12:04;;;;;;;2.10;1.20;;;;;;;;;;6129441;23;20432;-76
2021/03/27 05:14:57;;;;;;;1.10;1.10;;;;;;;;;;6129755;23;20726;-75
2021/03/27 05:17:26;;;;;;;1.40;1.40;;;;;;;;;;6129887;23;20202;-76
2021/03/27 05:19:56;;;;;;;1.50;1.40;;;;;;;;;;6129469;23;20194;-74
2021/03/27 05:22:32;;;;;;;1.30;1.30;;;;;;;;;;6129507;23;20181;-75
2021/03/27 05:25:06;;;;;;;1.27;1.27;;;;;;;;;;6130110;23;20180;-74
2021/03/27 05:27:39;;;;;;;2.83;1.60;;;;;;;;;;6129566;23;20182;-74
2021/03/27 05:30:13;;;;;;;1.57;1.47;;;;;;;;;;6129242;23;20174;-77
2021/03/27 05:32:46;;;;;;;2.73;1.53;;;;;;;;;;6129871;23;20189;-79
2021/03/27 05:35:32;;;;;;;1.80;1.70;;;;;;;;;;6129129;23;20201;-75
2021/03/27 05:38:08;;;;;;;2.20;2.10;;;;;;;;;;6094735;23;20560;-76
2021/03/27 05:40:43;;;;;;;2.10;2.00;;;;;;;;;;6129030;23;20189;-78
2021/03/27 05:43:20;;;;;;;1.87;1.87;;;;;;;;;;6130101;23;20205;-78
2021/03/27 05:45:54;;;;;;;3.40;2.00;;;;;;;;;;6128466;23;20579;-76
2021/03/27 05:48:29;;;;;;;3.03;2.30;;;;;;;;;;6129621;23;20177;-78
2021/03/27 05:51:05;;;;;;;3.53;2.17;;;;;;;;;;6129282;23;20408;-77
2021/03/27 05:53:43;;;;;;;2.50;1.80;;;;;;;;;;6129890;23;20177;-75
2021/03/27 05:56:30;;;;;;;1.73;1.63;;;;;;;;;;6129141;23;20225;-77
2021/03/27 05:59:04;;;;;;;1.40;1.40;;;;;;;;;;6129398;23;20186;-76
2021/03/27 06:01:48;;;;;;;1.40;1.30;;;;;;;;;;6129618;23;20174;-76
2021/03/27 06:04:29;;;;;;;1.10;1.10;;;;;;;;;;6129549;23;20256;-76
2021/03/27 06:07:15;;;;;;;2.20;1.10;;;;;;;;;;6127621;23;20182;-76
2021/03/27 06:10:07;;;;;;;2.20;0.90;;;;;;;;;;6128968;23;20174;-77
2021/03/27 06:12:47;;;;;;;3.83;1.13;;;;;;;;;;6129370;23;20178;-76
2021/03/27 06:15:28;;;;;;;1.83;1.07;;;;;;;;;;6129178;23;20174;-75
2021/03/27 06:18:04;;;;;;;3.70;1.03;;;;;;;;;;6104933;23;20595;-77
2021/03/27 06:20:41;;;;;;;1.00;1.00;;;;;;;;;;6129413;23;20213;-77
2021/03/27 06:23:17;;;;;;;1.40;0.97;;;;;;;;;;6129203;23;20174;-78
2021/03/27 06:25:52;;;;;;;2.33;1.00;;;;;;;;;;6128885;23;20206;-76
2021/03/27 06:28:38;;;;;;;2.83;0.90;;;;;;;;;;6129076;23;20174;-77
2021/03/27 06:31:12;;;;;;;2.40;0.80;;;;;;;;;;6127756;23;20208;-76
2021/03/27 06:34:05;;;;;;;1.17;1.10;;;;;;;;;;6128125;23;20174;-75
2021/03/27 06:36:40;;;;;;;1.53;0.90;;;;;;;;;;6060867;23;20254;-76
2021/03/27 06:39:24;;;;;;;2.77;1.10;;;;;;;;;;6128820;23;20641;-76
2021/03/27 06:42:08;;;;;;;1.70;1.00;;;;;;;;;;6103153;23;20173;-76
2021/03/27 06:45:04;;;;;;;2.53;0.93;;;;;;;;;;6129339;23;20182;-76
2021/03/27 06:47:47;;;;;;;1.17;0.90;;;;;;;;;;6127754;23;20174;-77
2021/03/27 06:50:31;;;;;;;1.57;0.80;;;;;;;;;;6128735;23;20170;-78
2021/03/27 06:53:12;;;;;;;1.75;1.10;;;;;;;;;;6128006;23;20730;-77
2021/03/27 06:55:46;;;;;;;3.33;1.00;;;;;;;;;;6129301;23;20178;-77
2021/03/27 06:58:35;;;;;;;1.10;0.90;;;;;;;;;;6129227;23;20182;-77
2021/03/27 07:01:15;;;;;;;6.33;1.00;;;;;;;;;;6074773;23;20229;-76
2021/03/27 07:04:03;;;;;;;1.40;1.17;;;;;;;;;;6128971;23;20178;-77
2021/03/27 07:06:40;;;;;;;1.27;1.07;;;;;;;;;;6120461;23;20496;-78
2021/03/27 07:09:40;;;;;;;3.33;1.13;;;;;;;;;;6128587;23;20225;-77
2021/03/27 07:12:17;;;;;;;2.27;1.00;;;;;;;;;;6128698;23;20177;-77
2021/03/27 07:14:50;;;;;;;1.60;0.90;;;;;;;;;;6128908;23;20224;-77
2021/03/27 07:17:34;;;;;;;2.77;1.20;;;;;;;;;;6128086;23;20210;-75
2021/03/27 07:20:17;;;;;;;2.00;1.20;;;;;;;;;;6128599;23;20635;-77
2021/03/27 07:22:48;;;;;;;5.03;1.10;;;;;;;;;;6070890;23;20225;-76
2021/03/27 07:25:25;;;;;;;1.27;1.10;;;;;;;;;;6129087;23;20225;-75
2021/03/27 07:28:06;;;;;;;3.57;1.30;;;;;;;;;;6128219;23;20177;-76
2021/03/27 07:30:40;;;;;;;1.63;1.20;;;;;;;;;;6128528;23;20547;-77
2021/03/27 07:33:34;;;;;;;2.20;0.87;;;;;;;;;;6127855;23;20177;-78
2021/03/27 07:36:33;;;;;;;1.73;1.10;;;;;;;;;;6129144;23;20229;-77
2021/03/27 07:39:14;;;;;;;2.90;1.13;;;;;;;;;;6128358;23;20480;-77
2021/03/27 07:41:48;;;;;;;1.83;1.13;;;;;;;;;;6066232;23;20233;-76
2021/03/27 07:44:40;;;;;;;1.87;1.10;;;;;;;;;;6130181;23;20248;-77
2021/03/27 07:47:23;;;;;;;2.30;1.27;;;;;;;;;;6130524;23;20178;-77
2021/03/27 07:50:01;;;;;;;2.73;1.20;;;;;;;;;;6130489;23;20170;-76
2021/03/27 07:52:32;;;;;;;3.40;1.20;;;;;;;;;;6130630;23;20178;-77
2021/03/27 07:55:15;;;;;;;2.50;0.77;;;;;;;;;;6129752;23;20185;-77
2021/03/27 07:58:09;;;;;;;2.43;1.03;;;;;;;;;;6130349;23;20221;-76
2021/03/27 08:00:50;;;;;;;3.03;1.20;;;;;;;;;;6062574;23;20257;-76
2021/03/27 08:03:36;;;;;;;2.03;1.13;;;;;;;;;;6130375;23;20221;-76
2021/03/27 08:06:06;;;;;;;2.00;1.10;;;;;;;;;;6121378;23;20243;-76
2021/03/27 08:08:51;;;;;;;3.30;1.30;;;;;;;;;;6130045;23;20178;-76
2021/03/27 08:11:27;;;;;;;3.17;1.30;;;;;;;;;;6130746;23;20198;-77
2021/03/27 08:14:07;;;;;;;1.63;1.00;;;;;;;;;;6130136;23;20185;-76
2021/03/27 08:16:37;;;;;;;3.13;1.13;;;;;;;;;;6130665;23;20173;-76
2021/03/27 08:19:15;;;;;;;1.60;1.00;;;;;;;;;;6129720;23;20198;-76
2021/03/27 08:21:46;;;;;;;1.37;1.00;;;;;;;;;;6130891;23;20174;-76
2021/03/27 08:24:24;;;;;;;3.47;0.73;;;;;;;;;;6129550;23;20178;-78
2021/03/27 08:26:57;;;;;;;3.80;1.20;;;;;;;;;;6130363;23;20178;-77
2021/03/27 08:29:47;;;;;;;0.80;0.80;;;;;;;;;;6130354;23;20171;-77
2021/03/27 08:32:32;;;;;;;3.00;1.07;;;;;;;;;;6130295;23;20174;-78
2021/03/27 08:35:19;;;;;;;2.03;1.43;;;;;;;;;;6129486;23;20485;-78
2021/03/27 08:38:03;;;;;;;2.83;1.10;;;;;;;;;;6130265;23;20488;-77
2021/03/27 08:40:35;;;;;;;2.00;0.93;;;;;;;;;;6071632;23;20591;-79
2021/03/27 08:43:19;;;;;;;4.03;1.20;;;;;;;;;;6130109;23;20544;-78
2021/03/27 08:46:03;;;;;;;2.70;1.30;;;;;;;;;;6130318;23;20174;-77
2021/03/27 08:48:36;;;;;;;3.80;1.37;;;;;;;;;;6129061;23;20189;-77
2021/03/27 08:51:19;;;;;;;3.73;0.97;;;;;;;;;;6129789;23;20177;-76
2021/03/27 08:54:03;;;;;;;4.23;1.30;;;;;;;;;;6128875;23;20432;-77
2021/03/27 08:56:48;;;;;;;4.20;1.03;;;;;;;;;;6129208;23;20197;-76
2021/03/27 08:59:23;;;;;;;5.10;1.20;;;;;;;;;;6129173;23;20205;-77
2021/03/27 09:02:01;;;;;;;4.13;0.97;;;;;;;;;;6129746;23;20178;-79
2021/03/27 09:04:42;;;;;;;5.87;1.17;;;;;;;;;;6129445;23;20174;-77
2021/03/27 09:07:25;;;;;;;3.87;1.10;;;;;;;;;;6125280;23;20174;-77
2021/03/27 09:10:03;;;;;;;2.87;1.23;;;;;;;;;;6128481;23;20170;-76
2021/03/27 09:12:39;;;;;;;2.17;1.00;;;;;;;;;;6129740;23;20174;-78
2021/03/27 09:15:14;;;;;;;3.80;1.10;;;;;;;;;;6129359;23;20575;-77
2021/03/27 09:17:53;;;;;;;2.67;1.10;;;;;;;;;;6128698;23;20277;-77
2021/03/27 09:20:29;;;;;;;1.73;1.07;;;;;;;;;;6130054;23;20598;-75
2021/03/27 09:23:06;;;;;;;3.67;1.27;;;;;;;;;;6128802;23;20178;-76
2021/03/27 09:25:34;;;;;;;3.13;1.07;;;;;;;;;;6130015;23;20174;-74
2021/03/27 09:28:18;;;;;;;3.60;0.90;;;;;;;;;;6104163;23;20203;-75
2021/03/27 09:30:51;;;;;;;1.83;1.17;;;;;;;;;;6128675;23;20170;-77
2021/03/27 09:33:24;;;;;;;1.23;1.10;;;;;;;;;;6128965;23;20178;-76
2021/03/27 09:35:56;;;;;;;1.83;1.10;;;;;;;;;;6129575;23;20174;-77
2021/03/27 09:38:26;;;;;;;3.87;1.20;;;;;;;;;;6129683;23;20571;-80
2021/03/27 09:41:04;;;;;;;2.30;1.13;;;;;;;;;;6129945;23;20209;-78
2021/03/27 09:44:00;;;;;;;1.53;1.23;;;;;;;;;;6129444;23;20184;-76
2021/03/27 09:46:27;;;;;;;1.97;0.97;;;;;;;;;;5988645;23;20233;-76
2021/03/27 09:49:00;;;;;;;2.50;1.30;;;;;;;;;;6102247;23;20181;-78
2021/03/27 09:51:35;;;;;;;4.97;1.40;;;;;;;;;;6129366;23;20174;-76
2021/03/27 09:54:04;;;;;;;6.30;0.93;;;;;;;;;;6129210;23;20205;-77
2021/03/27 09:56:36;;;;;;;4.80;1.50;;;;;;;;;;6129561;23;20173;-76
2021/03/27 09:59:17;;;;;;;4.63;1.20;;;;;;;;;;6129242;23;20181;-78
2021/03/27 10:01:46;;;;;;;4.20;1.10;;;;;;;;;;6129201;23;20241;-76
2021/03/27 10:04:18;;;;;;;5.47;1.40;;;;;;;;;;6128462;23;20204;-75
2021/03/27 10:07:06;;;;;;;4.97;1.20;;;;;;;;;;6128806;23;20178;-76
2021/03/27 10:09:37;;;;;;;3.00;1.00;;;;;;;;;;6129300;23;20448;-75
2021/03/27 10:12:05;;;;;;;3.47;1.40;;;;;;;;;;6129799;23;20178;-75
2021/03/27 10:14:33;;;;;;;3.10;1.20;;;;;;;;;;6128648;23;20179;-75
2021/03/27 10:17:04;;;;;;;3.50;1.20;;;;;;;;;;6128933;23;20201;-78
2021/03/27 10:19:31;;;;;;;4.73;1.20;;;;;;;;;;6103370;23;20174;-77
2021/03/27 10:22:13;;;;;;;4.23;1.27;;;;;;;;;;6129409;23;20585;-76
2021/03/27 10:24:43;;;;;;;2.63;1.10;;;;;;;;;;6128981;23;20173;-76
2021/03/27 10:27:15;;;;;;;5.40;1.37;;;;;;;;;;6129564;23;20174;-77
2021/03/27 10:29:43;;;;;;;2.23;1.20;;;;;;;;;;6128995;23;20225;-76
2021/03/27 10:32:28;;;;;;;3.50;1.30;;;;;;;;;;6129248;23;20556;-76
2021/03/27 10:34:56;;;;;;;3.10;1.27;;;;;;;;;;6128496;23;20501;-77
2021/03/27 10:37:26;;;;;;;5.87;0.90;;;;;;;;;;6129217;23;20181;-77
2021/03/27 10:39:58;;;;;;;4.17;1.30;;;;;;;;;;6128575;23;20197;-77
2021/03/27 10:42:44;;;;;;;3.58;1.58;;;;;;;;;;6127906;23;20727;-77
2021/03/27 10:45:28;;;;;;;1.10;1.00;;;;;;;;;;6129108;23;20181;-77
2021/03/27 10:48:15;;;;;;;1.13;0.97;;;;;;;;;;6109402;23;20583;-75
2021/03/27 10:50:50;;;;;;;3.90;1.53;;;;;;;;;;6080286;23;20170;-76
2021/03/27 10:53:20;;;;;;;3.17;1.03;;;;;;;;;;6129004;23;20184;-75
2021/03/27 10:56:06;;;;;;;1.80;1.00;;;;;;;;;;6128824;23;20174;-77
2021/03/27 10:58:51;;;;;;;3.50;1.17;;;;;;;;;;6128642;23;20279;-77
2021/03/27 11:01:38;;;;;;;4.23;1.33;;;;;;;;;;6128734;23;20186;-75
2021/03/27 11:04:11;;;;;;;1.73;0.90;;;;;;;;;;6128794;23;20174;-76
2021/03/27 11:06:50;;;;;;;0.90;0.80;;;;;;;;;;6128935;23;20263;-76
2021/03/27 11:09:32;;;;;;;4.17;1.00;;;;;;;;;;6128182;23;20244;-76
2021/03/27 11:12:12;;;;;;;2.40;1.10;;;;;;;;;;6128330;23;20248;-76
2021/03/27 11:15:08;;;;;;;2.93;1.30;;;;;;;;;;6128587;23;20197;-76
2021/03/27 11:17:49;;;;;;;2.23;0.93;;;;;;;;;;6012514;23;20465;-74
2021/03/27 11:20:25;;;;;;;2.47;1.13;;;;;;;;;;6113850;23;20189;-76
2021/03/27 11:23:19;;;;;;;5.23;1.00;;;;;;;;;;6130942;23;20173;-77
2021/03/27 11:25:54;;;;;;;3.00;1.03;;;;;;;;;;6130401;23;20173;-76
2021/03/27 11:28:24;;;;;;;4.13;1.57;;;;;;;;;;6130706;23;20173;-76
2021/03/27 11:31:08;;;;;;;3.83;0.97;;;;;;;;;;6130915;23;20170;-78
2021/03/27 11:33:36;;;;;;;3.17;1.00;;;;;;;;;;6130698;23;20201;-78
2021/03/27 11:36:04;;;;;;;2.50;0.90;;;;;;;;;;6130818;23;20217;-77
2021/03/27 11:38:33;;;;;;;2.10;0.70;;;;;;;;;;6130720;23;20181;-77
2021/03/27 11:41:04;;;;;;;2.13;0.73;;;;;;;;;;6130438;23;20197;-76
2021/03/27 11:43:37;;;;;;;2.70;1.00;;;;;;;;;;6130713;23;20448;-77
2021/03/27 11:46:05;;;;;;;3.23;0.87;;;;;;;;;;6130521;23;20177;-78
2021/03/27 11:48:35;;;;;;;2.83;1.00;;;;;;;;;;6130476;23;20174;-79
2021/03/27 11:51:08;;;;;;;2.50;1.17;;;;;;;;;;6104394;23;20619;-77
2021/03/27 11:53:42;;;;;;;2.47;0.73;;;;;;;;;;6129764;23;20448;-77
2021/03/27 11:56:10;;;;;;;0.73;0.73;;;;;;;;;;6130412;23;20181;-77
2021/03/27 12:01:29;;;;;;;3.67;0.80;;;;;;;;;;6129366;23;20654;-77
2021/03/27 12:04:02;;;;;;;2.20;0.70;;;;;;;;;;6130015;23;20174;-76
2021/03/27 12:06:32;;;;;;;1.30;0.80;;;;;;;;;;6130495;23;20543;-77
2021/03/27 12:09:07;;;;;;;0.70;0.70;;;;;;;;;;6130475;23;20174;-77
2021/03/27 12:11:48;;;;;;;1.50;0.70;;;;;;;;;;6130492;23;20174;-77
2021/03/27 12:14:16;;;;;;;1.73;0.60;;;;;;;;;;6128845;23;20174;-77
2021/03/27 12:16:45;;;;;;;1.13;0.60;;;;;;;;;;6130409;23;20174;-78
2021/03/27 12:19:20;;;;;;;1.40;0.40;;;;;;;;;;6129226;23;20448;-77
2021/03/27 12:21:51;;;;;;;1.47;0.40;;;;;;;;;;6130070;23;20217;-77
2021/03/27 12:24:21;;;;;;;1.77;0.83;;;;;;;;;;6130174;23;20178;-77
2021/03/27 12:26:53;;;;;;;3.30;0.87;;;;;;;;;;6130178;23;20174;-78
2021/03/27 12:29:25;;;;;;;4.07;1.10;;;;;;;;;;6129608;23;20178;-77
2021/03/27 12:32:17;;;;;;;2.47;0.80;;;;;;;;;;6129850;23;20174;-75
2021/03/27 12:34:47;;;;;;;1.33;0.80;;;;;;;;;;6129740;23;20174;-76
2021/03/27 12:37:15;;;;;;;1.87;0.80;;;;;;;;;;6130372;23;20181;-77
2021/03/27 12:39:45;;;;;;;2.70;1.13;;;;;;;;;;6129763;23;20574;-76
2021/03/27 12:42:13;;;;;;;4.40;1.40;;;;;;;;;;6128995;23;20271;-77
2021/03/27 12:44:42;;;;;;;3.17;1.17;;;;;;;;;;6129443;23;20233;-75
2021/03/27 12:47:35;;;;;;;3.57;0.90;;;;;;;;;;6129117;23;20174;-76
2021/03/27 12:50:09;;;;;;;3.83;0.80;;;;;;;;;;6061327;23;20480;-78
2021/03/27 12:52:41;;;;;;;3.80;1.43;;;;;;;;;;6128936;23;20432;-76
2021/03/27 12:55:19;;;;;;;5.03;1.27;;;;;;;;;;6129102;23;20174;-77
2021/03/27 12:57:50;;;;;;;0.73;0.73;;;;;;;;;;6128666;23;20178;-76
2021/03/27 13:00:35;;;;;;;1.57;0.97;;;;;;;;;;6129175;23;20193;-77
2021/03/27 13:03:10;;;;;;;2.27;1.00;;;;;;;;;;6129450;23;20217;-77
2021/03/27 13:05:39;;;;;;;0.77;0.77;;;;;;;;;;6128879;23;20173;-76
2021/03/27 13:08:14;;;;;;;1.73;1.00;;;;;;;;;;6129311;23;20201;-77
2021/03/27 13:10:46;;;;;;;1.50;0.90;;;;;;;;;;6128561;23;20185;-77
2021/03/27 13:13:18;;;;;;;2.90;1.07;;;;;;;;;;6128925;23;20174;-77
2021/03/27 13:15:48;;;;;;;4.13;1.50;;;;;;;;;;6128122;23;20205;-77
2021/03/27 13:18:39;;;;;;;1.40;0.90;;;;;;;;;;6128158;23;20213;-76
2021/03/27 13:21:11;;;;;;;1.93;1.17;;;;;;;;;;6128355;23;20185;-76
2021/03/27 13:23:43;;;;;;;3.33;1.20;;;;;;;;;;6128775;23;20182;-77
2021/03/27 13:26:10;;;;;;;2.97;1.20;;;;;;;;;;6128559;23;20186;-77
2021/03/27 13:28:38;;;;;;;1.93;1.17;;;;;;;;;;6128292;23;20174;-77
2021/03/27 13:31:09;;;;;;;2.77;1.23;;;;;;;;;;6128293;23;20170;-75
2021/03/27 13:33:40;;;;;;;2.80;1.30;;;;;;;;;;6128828;23;20181;-75
2021/03/27 13:36:10;;;;;;;2.40;1.07;;;;;;;;;;6129036;23;20417;-76
2021/03/27 13:38:39;;;;;;;6.63;1.50;;;;;;;;;;6128324;23;20174;-75
2021/03/27 13:41:08;;;;;;;1.53;1.27;;;;;;;;;;6128058;23;20194;-76
2021/03/27 13:43:36;;;;;;;2.60;1.17;;;;;;;;;;6129035;23;20179;-76
2021/03/27 13:46:06;;;;;;;3.17;1.20;;;;;;;;;;6127771;23;20182;-76
2021/03/27 13:48:35;;;;;;;6.40;1.03;;;;;;;;;;6128803;23;20426;-75
2021/03/27 13:51:07;;;;;;;4.57;1.33;;;;;;;;;;6128466;23;20174;-76
2021/03/27 13:53:44;;;;;;;2.50;1.20;;;;;;;;;;6129073;23;20185;-76
2021/03/27 13:56:17;;;;;;;2.73;1.03;;;;;;;;;;6128576;23;20174;-76
2021/03/27 13:58:52;;;;;;;4.97;1.37;;;;;;;;;;6128290;23;20206;-76
2021/03/27 14:01:21;;;;;;;4.23;1.20;;;;;;;;;;6128182;23;20205;-77
2021/03/27 14:03:54;;;;;;;4.73;1.47;;;;;;;;;;6128343;23;20173;-76
2021/03/27 14:06:30;;;;;;;2.23;1.30;;;;;;;;;;6102457;23;20185;-77
2021/03/27 14:09:15;;;;;;;4.07;1.30;;;;;;;;;;6128845;23;20540;-76
2021/03/27 14:11:44;;;;;;;5.43;1.47;;;;;;;;;;6128527;23;20181;-76
2021/03/27 14:14:14;;;;;;;4.93;1.30;;;;;;;;;;6128401;23;20175;-75
2021/03/27 14:16:44;;;;;;;4.00;1.50;;;;;;;;;;6127931;23;20174;-77
2021/03/27 14:19:18;;;;;;;4.67;1.40;;;;;;;;;;6127987;23;20181;-76
2021/03/27 14:21:54;;;;;;;3.13;1.37;;;;;;;;;;6127686;23;20193;-76
2021/03/27 14:24:38;;;;;;;2.90;1.40;;;;;;;;;;6128124;23;20551;-77
2021/03/27 14:27:13;;;;;;;4.30;1.47;;;;;;;;;;6129196;23;20173;-77
2021/03/27 14:29:42;;;;;;;3.80;1.47;;;;;;;;;;6129183;23;20225;-77
2021/03/27 14:32:15;;;;;;;3.60;1.50;;;;;;;;;;6128771;23;20237;-77
2021/03/27 14:34:56;;;;;;;2.20;1.20;;;;;;;;;;6128782;23;20556;-78
2021/03/27 14:37:34;;;;;;;2.47;1.80;;;;;;;;;;6128620;23;20205;-78
2021/03/27 14:40:13;;;;;;;2.60;2.10;;;;;;;;;;6128647;23;20216;-78
2021/03/27 14:43:01;;;;;;;4.30;2.70;;;;;;;;;;6128998;23;20618;-78
2021/03/27 14:45:39;;;;;;;3.60;1.80;;;;;;;;;;6128047;23;20178;-77
2021/03/27 14:48:16;;;;;;;4.57;1.70;;;;;;;;;;6128778;23;20480;-77
2021/03/27 14:50:46;;;;;;;5.43;1.83;;;;;;;;;;6129046;23;20174;-78
2021/03/27 14:53:18;;;;;;;5.57;1.77;;;;;;;;;;6128530;23;20178;-78
2021/03/27 14:55:47;;;;;;;3.77;1.43;;;;;;;;;;6103459;23;20436;-77
2021/03/27 14:58:17;;;;;;;3.77;1.50;;;;;;;;;;6128222;23;20444;-80
2021/03/27 15:00:55;;;;;;;4.47;1.27;;;;;;;;;;6128773;23;20579;-77
2021/03/27 15:03:26;;;;;;;3.37;1.73;;;;;;;;;;6128303;23;20181;-77
2021/03/27 15:05:54;;;;;;;4.27;1.67;;;;;;;;;;6128887;23;20181;-77
2021/03/27 15:08:28;;;;;;;2.57;1.20;;;;;;;;;;6128498;23;20178;-77
2021/03/27 15:10:58;;;;;;;4.80;1.53;;;;;;;;;;6128196;23;20178;-78
2021/03/27 15:13:35;;;;;;;4.47;1.73;;;;;;;;;;6128754;23;20441;-77
2021/03/27 15:16:13;;;;;;;3.58;1.88;;;;;;;;;;6127451;23;21175;-77
2021/03/27 15:18:41;;;;;;;4.97;1.60;;;;;;;;;;6128348;23;20265;-77
2021/03/27 15:21:10;;;;;;;4.50;1.50;;;;;;;;;;6127637;23;20190;-77
2021/03/27 15:23:43;;;;;;;4.03;1.60;;;;;;;;;;6127648;23;20178;-77
2021/03/27 15:29:09;;;;;;;5.40;1.70;;;;;;;;;;6127854;23;20209;-77
2021/03/27 15:31:39;;;;;;;4.97;2.07;;;;;;;;;;6127783;23;20173;-77